createdAt,value
2017-03-12T00:00:44.381Z,19.10
2017-03-12T00:01:38.302Z,19.55
2017-03-12T00:02:34.841Z,19.61
2017-03-12T00:03:40.426Z,19.65
2017-03-12T00:04:38.190Z,19.65
2017-03-12T00:05:43.372Z,19.67
2017-03-12T00:06:47.737Z,19.67
2017-03-12T00:07:37.194Z,19.30
2017-03-12T00:08:35.902Z,19.13
2017-03-12T00:09:48.904Z,19.08
2017-03-12T00:10:38.663Z,19.05
2017-03-12T00:11:34.592Z,19.04
2017-03-12T00:12:34.622Z,19.03
2017-03-12T00:13:39.980Z,19.02
2017-03-12T00:14:38.617Z,19.02
2017-03-12T00:15:37.154Z,19.02
2017-03-12T00:16:32.495Z,19.01
2017-03-12T00:17:33.548Z,19.07
2017-03-12T00:18:38.846Z,19.01
2017-03-12T00:19:35.395Z,19.01
2017-03-12T00:20:35.295Z,19.01
2017-03-12T00:21:30.391Z,19.00
2017-03-12T00:22:34.578Z,19.01
2017-03-12T00:23:28.807Z,19.00
2017-03-12T00:24:39.356Z,19.00
2017-03-12T00:25:39.921Z,19.00
2017-03-12T00:26:37.894Z,19.00
2017-03-12T00:27:37.320Z,19.00
2017-03-12T00:28:38.987Z,19.03
2017-03-12T00:29:38.701Z,19.04
2017-03-12T00:30:34.605Z,19.00
2017-03-12T00:31:36.658Z,19.00
2017-03-12T00:32:38.901Z,19.00
2017-03-12T00:33:34.346Z,19.00
2017-03-12T00:34:34.336Z,19.00
2017-03-12T00:35:34.802Z,19.00
2017-03-12T00:36:49.699Z,18.99
2017-03-12T00:37:38.225Z,18.99
2017-03-12T00:38:51.680Z,19.00
2017-03-12T00:39:35.838Z,18.99
2017-03-12T00:40:38.675Z,19.01
2017-03-12T00:41:43.339Z,18.99
2017-03-12T00:42:35.172Z,18.99
2017-03-12T00:43:39.235Z,18.99
2017-03-12T00:44:52.991Z,18.99
2017-03-12T00:45:41.863Z,18.99
2017-03-12T00:46:47.922Z,18.99
2017-03-12T00:47:49.297Z,19.00
2017-03-12T00:48:29.286Z,19.00
2017-03-12T00:49:33.416Z,18.99
2017-03-12T00:50:34.448Z,18.99
2017-03-12T00:51:34.483Z,18.99
2017-03-12T00:52:34.337Z,18.99
2017-03-12T00:53:44.479Z,18.99
2017-03-12T00:54:38.997Z,18.99
2017-03-12T00:55:35.022Z,18.99
2017-03-12T00:56:34.931Z,18.99
2017-03-12T00:57:34.901Z,18.98
2017-03-12T00:58:49.181Z,18.98
2017-03-12T00:59:34.249Z,18.98
2017-03-12T01:00:37.598Z,18.98
2017-03-12T01:01:38.728Z,18.99
2017-03-12T01:02:41.586Z,18.98
2017-03-12T01:03:44.078Z,18.99
2017-03-12T01:04:34.910Z,18.99
2017-03-12T01:05:44.360Z,18.99
2017-03-12T01:06:34.648Z,18.99
2017-03-12T01:07:50.254Z,18.99
2017-03-12T01:08:43.853Z,18.98
2017-03-12T01:09:39.376Z,19.00
2017-03-12T01:10:39.587Z,18.99
2017-03-12T01:11:38.890Z,19.01
2017-03-12T01:12:44.270Z,18.99
2017-03-12T01:13:35.272Z,18.99
2017-03-12T01:14:43.771Z,18.99
2017-03-12T01:15:28.771Z,18.99
2017-03-12T01:16:34.759Z,18.99
2017-03-12T01:17:39.374Z,18.99
2017-03-12T01:18:49.074Z,18.99
2017-03-12T01:19:42.190Z,18.99
2017-03-12T01:20:38.531Z,18.99
2017-03-12T01:21:43.936Z,19.00
2017-03-12T01:22:46.761Z,18.99
2017-03-12T01:23:42.417Z,18.99
2017-03-12T01:24:47.291Z,19.00
2017-03-12T01:25:42.986Z,18.99
2017-03-12T01:26:38.241Z,18.99
2017-03-12T01:27:43.363Z,18.98
2017-03-12T01:28:47.641Z,19.53
2017-03-12T01:29:38.946Z,19.57
2017-03-12T01:30:39.411Z,19.08
2017-03-12T01:31:43.411Z,19.04
2017-03-12T01:32:49.744Z,19.01
2017-03-12T01:33:59.283Z,19.03
2017-03-12T01:34:43.570Z,18.99
2017-03-12T01:35:36.000Z,18.99
2017-03-12T01:36:38.700Z,18.99
2017-03-12T01:37:57.888Z,18.99
2017-03-12T01:38:47.317Z,18.98
2017-03-12T01:39:40.024Z,18.97
2017-03-12T01:40:34.307Z,18.98
2017-03-12T01:41:51.163Z,18.98
2017-03-12T01:42:44.758Z,18.98
2017-03-12T01:43:49.268Z,18.97
2017-03-12T01:44:49.054Z,18.97
2017-03-12T01:45:43.059Z,18.97
2017-03-12T01:46:53.988Z,18.98
2017-03-12T01:47:47.686Z,18.97
2017-03-12T01:48:37.516Z,18.97
2017-03-12T01:49:53.364Z,18.97
2017-03-12T01:50:42.976Z,18.97
2017-03-12T01:51:36.583Z,18.96
2017-03-12T01:52:48.681Z,18.96
2017-03-12T01:53:40.324Z,18.96
2017-03-12T01:54:34.938Z,18.97
2017-03-12T01:55:45.789Z,18.95
2017-03-12T01:56:39.899Z,18.96
2017-03-12T01:57:53.728Z,18.95
2017-03-12T01:58:48.054Z,18.97
2017-03-12T01:59:33.549Z,18.98
2017-03-12T02:00:34.277Z,18.95
2017-03-12T02:01:59.426Z,19.02
2017-03-12T02:02:52.835Z,18.96
2017-03-12T02:03:31.324Z,18.95
2017-03-12T02:04:35.424Z,18.95
2017-03-12T02:05:38.756Z,19.01
2017-03-12T02:06:51.074Z,18.95
2017-03-12T02:07:41.999Z,18.95
2017-03-12T02:08:40.535Z,18.95
2017-03-12T02:09:47.345Z,18.95
2017-03-12T02:10:47.157Z,18.95
2017-03-12T02:11:43.084Z,18.98
2017-03-12T02:12:43.719Z,18.99
2017-03-12T02:13:43.519Z,19.00
2017-03-12T02:14:48.370Z,19.00
2017-03-12T02:15:33.439Z,18.99
2017-03-12T02:16:44.782Z,18.99
2017-03-12T02:17:44.198Z,18.98
2017-03-12T02:18:38.744Z,18.98
2017-03-12T02:19:35.153Z,18.97
2017-03-12T02:20:37.419Z,18.96
2017-03-12T02:21:42.063Z,18.97
2017-03-12T02:22:53.528Z,18.96
2017-03-12T02:23:37.346Z,18.95
2017-03-12T02:24:52.366Z,18.94
2017-03-12T02:25:45.617Z,18.94
2017-03-12T02:26:39.510Z,18.94
2017-03-12T02:27:39.761Z,18.94
2017-03-12T02:28:49.979Z,18.93
2017-03-12T02:29:51.076Z,18.93
2017-03-12T02:30:42.048Z,18.93
2017-03-12T02:31:34.692Z,18.93
2017-03-12T02:32:42.726Z,18.92
2017-03-12T02:33:43.068Z,18.92
2017-03-12T02:34:48.593Z,19.45
2017-03-12T02:35:39.427Z,19.51
2017-03-12T02:36:54.172Z,19.53
2017-03-12T02:37:35.191Z,19.54
2017-03-12T02:38:40.009Z,19.56
2017-03-12T02:39:46.352Z,19.56
2017-03-12T02:40:34.666Z,19.57
2017-03-12T02:41:53.108Z,19.05
2017-03-12T02:42:25.702Z,19.03
2017-03-12T02:43:41.911Z,19.61
2017-03-12T02:44:37.436Z,19.22
2017-03-12T02:45:43.194Z,19.30
2017-03-12T02:46:34.556Z,19.38
2017-03-12T02:47:44.927Z,19.47
2017-03-12T02:48:49.452Z,19.54
2017-03-12T02:49:38.958Z,19.61
2017-03-12T02:50:40.532Z,19.58
2017-03-12T02:51:35.610Z,19.57
2017-03-12T02:52:43.654Z,19.58
2017-03-12T02:53:48.653Z,19.55
2017-03-12T02:54:32.954Z,19.52
2017-03-12T02:55:27.167Z,19.51
2017-03-12T02:56:32.809Z,19.50
2017-03-12T02:57:35.013Z,19.52
2017-03-12T02:58:53.100Z,19.55
2017-03-12T02:59:37.930Z,19.60
2017-03-12T03:00:43.000Z,19.59
2017-03-12T03:04:37.369Z,19.65
2017-03-12T03:05:51.773Z,19.64
2017-03-12T03:06:43.477Z,19.65
2017-03-12T03:07:28.603Z,19.70
2017-03-12T03:08:34.377Z,19.65
2017-03-12T03:09:34.370Z,19.64
2017-03-12T03:10:47.975Z,19.65
2017-03-12T03:11:42.033Z,19.65
2017-03-12T03:12:38.891Z,19.65
2017-03-12T03:13:41.802Z,19.66
2017-03-12T03:14:58.722Z,19.66
2017-03-12T03:15:59.445Z,19.69
2017-03-12T03:16:38.269Z,19.69
2017-03-12T03:17:29.704Z,19.70
2017-03-12T03:18:43.163Z,19.71
2017-03-12T03:19:40.627Z,19.71
2017-03-12T03:20:49.842Z,19.72
2017-03-12T03:23:29.140Z,19.75
2017-03-12T03:24:41.206Z,19.76
2017-03-12T03:26:40.633Z,19.74
2017-03-12T03:27:38.328Z,19.74
2017-03-12T03:28:40.461Z,19.74
2017-03-12T03:29:28.458Z,19.75
2017-03-12T03:30:47.738Z,19.75
2017-03-12T03:32:07.875Z,19.77
2017-03-12T03:32:35.671Z,19.78
2017-03-12T03:33:47.831Z,19.79
2017-03-12T03:34:40.810Z,19.84
2017-03-12T03:35:35.035Z,20.33
2017-03-12T03:36:28.877Z,20.40
2017-03-12T03:37:35.553Z,20.43
2017-03-12T03:38:26.355Z,20.44
2017-03-12T03:39:35.487Z,20.45
2017-03-12T03:40:32.827Z,20.47
2017-03-12T03:43:44.012Z,20.47
2017-03-12T03:43:58.154Z,20.16
2017-03-12T03:44:47.896Z,19.98
2017-03-12T03:45:35.098Z,19.94
2017-03-12T03:46:37.406Z,19.90
2017-03-12T03:47:34.886Z,19.89
2017-03-12T03:49:46.848Z,19.86
2017-03-12T03:50:35.173Z,19.86
2017-03-12T03:51:38.519Z,19.91
2017-03-12T03:52:34.288Z,19.88
2017-03-12T03:53:44.138Z,19.86
2017-03-12T03:54:38.208Z,19.83
2017-03-12T03:55:35.220Z,19.82
2017-03-12T03:56:39.008Z,19.83
2017-03-12T03:57:33.815Z,19.82
2017-03-12T03:58:34.535Z,19.82
2017-03-12T03:59:38.757Z,19.80
2017-03-12T04:00:34.705Z,19.81
2017-03-12T04:01:37.944Z,19.79
2017-03-12T04:02:32.925Z,19.79
2017-03-12T04:03:38.523Z,19.77
2017-03-12T04:04:33.676Z,19.78
2017-03-12T04:05:39.452Z,19.76
2017-03-12T04:06:44.123Z,19.74
2017-03-12T04:08:49.962Z,19.72
2017-03-12T04:09:39.054Z,19.71
2017-03-12T04:10:35.197Z,19.69
2017-03-12T04:11:43.857Z,19.70
2017-03-12T04:12:50.017Z,19.68
2017-03-12T04:13:44.842Z,19.68
2017-03-12T04:14:39.576Z,19.69
2017-03-12T04:15:33.219Z,19.68
2017-03-12T04:16:34.460Z,19.66
2017-03-12T04:17:34.836Z,19.66
2017-03-12T04:18:36.506Z,19.64
2017-03-12T04:19:34.221Z,19.71
2017-03-12T04:20:34.665Z,19.62
2017-03-12T04:21:39.241Z,19.62
2017-03-12T04:22:35.437Z,19.60
2017-03-12T04:23:36.431Z,19.60
2017-03-12T04:24:33.645Z,19.58
2017-03-12T04:25:42.980Z,19.57
2017-03-12T04:26:42.713Z,19.57
2017-03-12T04:27:34.493Z,19.57
2017-03-12T04:28:38.375Z,19.56
2017-03-12T04:29:35.081Z,19.54
2017-03-12T04:30:39.393Z,19.54
2017-03-12T04:31:48.851Z,19.53
2017-03-12T04:32:45.104Z,19.54
2017-03-12T04:33:29.524Z,19.53
2017-03-12T04:34:43.093Z,19.52
2017-03-12T04:35:35.305Z,19.52
2017-03-12T04:36:35.075Z,19.52
2017-03-12T04:37:39.021Z,19.51
2017-03-12T04:38:33.541Z,19.55
2017-03-12T04:39:37.703Z,19.52
2017-03-12T04:40:38.536Z,19.51
2017-03-12T04:41:42.882Z,19.50
2017-03-12T04:42:37.873Z,19.48
2017-03-12T04:43:34.743Z,19.48
2017-03-12T04:44:36.515Z,19.47
2017-03-12T04:45:39.348Z,19.47
2017-03-12T04:46:41.618Z,19.48
2017-03-12T04:47:37.466Z,19.46
2017-03-12T04:48:32.733Z,19.51
2017-03-12T04:49:48.230Z,19.47
2017-03-12T04:50:39.175Z,19.47
2017-03-12T04:51:44.169Z,19.46
2017-03-12T04:52:35.091Z,19.46
2017-03-12T04:53:39.299Z,19.45
2017-03-12T04:54:35.103Z,19.44
2017-03-12T04:55:44.365Z,19.44
2017-03-12T04:56:35.287Z,19.43
2017-03-12T04:57:43.372Z,19.43
2017-03-12T04:58:44.969Z,19.97
2017-03-12T04:59:50.999Z,20.02
2017-03-12T05:00:44.897Z,20.04
2017-03-12T05:01:39.407Z,20.05
2017-03-12T05:02:43.906Z,20.05
2017-03-12T05:03:39.388Z,20.06
2017-03-12T05:04:39.414Z,19.71
2017-03-12T05:05:34.996Z,19.54
2017-03-12T05:06:34.975Z,19.49
2017-03-12T05:07:39.420Z,19.46
2017-03-12T05:08:33.413Z,19.45
2017-03-12T05:09:37.702Z,19.44
2017-03-12T05:10:44.862Z,19.43
2017-03-12T05:11:44.562Z,19.57
2017-03-12T05:12:29.005Z,19.48
2017-03-12T05:13:44.054Z,19.45
2017-03-12T05:14:35.026Z,19.43
2017-03-12T05:15:28.994Z,19.42
2017-03-12T05:16:39.133Z,19.42
2017-03-12T05:17:39.393Z,19.41
2017-03-12T05:18:34.973Z,19.40
2017-03-12T05:19:44.724Z,19.42
2017-03-12T05:20:33.911Z,19.47
2017-03-12T05:21:39.091Z,19.39
2017-03-12T05:22:48.689Z,19.38
2017-03-12T05:23:37.525Z,19.38
2017-03-12T05:24:46.465Z,19.39
2017-03-12T05:25:35.610Z,19.37
2017-03-12T05:26:39.409Z,19.37
2017-03-12T05:27:43.927Z,19.38
2017-03-12T05:28:38.574Z,19.37
2017-03-12T05:29:48.788Z,19.38
2017-03-12T05:30:39.297Z,19.39
2017-03-12T05:31:43.232Z,19.36
2017-03-12T05:32:40.407Z,19.39
2017-03-12T05:33:43.468Z,19.35
2017-03-12T05:34:43.144Z,19.36
2017-03-12T05:35:34.663Z,19.34
2017-03-12T05:36:38.199Z,19.34
2017-03-12T05:37:44.039Z,19.34
2017-03-12T05:38:34.587Z,19.40
2017-03-12T05:39:35.057Z,19.33
2017-03-12T05:40:44.718Z,19.33
2017-03-12T05:41:47.438Z,19.33
2017-03-12T05:42:44.464Z,19.33
2017-03-12T05:43:27.825Z,19.35
2017-03-12T05:44:42.347Z,19.33
2017-03-12T05:45:33.428Z,19.33
2017-03-12T05:46:48.899Z,19.33
2017-03-12T05:47:43.749Z,19.32
2017-03-12T05:48:34.640Z,19.32
2017-03-12T05:49:34.374Z,19.32
2017-03-12T05:50:40.585Z,19.32
2017-03-12T05:51:39.615Z,19.32
2017-03-12T05:52:40.425Z,19.31
2017-03-12T05:53:36.390Z,19.32
2017-03-12T05:54:40.726Z,19.32
2017-03-12T05:55:37.811Z,19.31
2017-03-12T05:56:45.239Z,19.36
2017-03-12T05:57:37.621Z,19.31
2017-03-12T05:58:39.276Z,19.31
2017-03-12T05:59:35.852Z,19.30
2017-03-12T06:00:34.792Z,19.30
2017-03-12T06:01:45.807Z,19.29
2017-03-12T06:02:34.801Z,19.30
2017-03-12T06:03:48.176Z,19.30
2017-03-12T06:04:44.230Z,19.29
2017-03-12T06:05:37.999Z,19.30
2017-03-12T06:06:38.506Z,19.33
2017-03-12T06:07:39.120Z,19.49
2017-03-12T06:08:47.436Z,19.33
2017-03-12T06:09:37.778Z,19.32
2017-03-12T06:10:34.180Z,19.31
2017-03-12T06:11:44.853Z,19.30
2017-03-12T06:12:34.529Z,19.30
2017-03-12T06:13:44.461Z,19.30
2017-03-12T06:14:34.882Z,19.30
2017-03-12T06:15:49.797Z,19.30
2017-03-12T06:16:34.883Z,19.30
2017-03-12T06:17:27.022Z,19.30
2017-03-12T06:18:39.046Z,19.31
2017-03-12T06:19:29.348Z,19.30
2017-03-12T06:20:33.828Z,19.30
2017-03-12T06:21:34.810Z,19.30
2017-03-12T06:22:44.840Z,19.31
2017-03-12T06:23:38.448Z,19.29
2017-03-12T06:24:44.116Z,19.29
2017-03-12T06:25:38.822Z,19.30
2017-03-12T06:26:39.334Z,19.29
2017-03-12T06:27:53.649Z,19.28
2017-03-12T06:28:43.092Z,19.28
2017-03-12T06:29:43.267Z,19.27
2017-03-12T06:30:47.273Z,19.28
2017-03-12T06:31:38.888Z,19.28
2017-03-12T06:32:34.612Z,19.28
2017-03-12T06:33:38.681Z,19.27
2017-03-12T06:34:43.402Z,19.27
2017-03-12T06:35:35.547Z,19.28
2017-03-12T06:36:39.687Z,19.27
2017-03-12T06:37:34.708Z,19.26
2017-03-12T06:38:55.136Z,19.26
2017-03-12T06:39:43.043Z,19.30
2017-03-12T06:40:32.831Z,19.28
2017-03-12T06:41:38.196Z,19.25
2017-03-12T06:42:43.191Z,19.26
2017-03-12T06:43:39.117Z,19.26
2017-03-12T06:44:34.818Z,19.26
2017-03-12T06:45:39.105Z,19.25
2017-03-12T06:46:35.256Z,19.25
2017-03-12T06:47:39.048Z,19.25
2017-03-12T06:48:39.275Z,19.25
2017-03-12T06:49:39.235Z,19.25
2017-03-12T06:50:43.782Z,19.26
2017-03-12T06:51:33.257Z,19.25
2017-03-12T06:52:42.172Z,19.25
2017-03-12T06:53:37.425Z,19.25
2017-03-12T06:54:43.130Z,19.25
2017-03-12T06:55:34.384Z,19.25
2017-03-12T06:56:43.909Z,19.25
2017-03-12T06:57:34.961Z,19.23
2017-03-12T06:58:44.599Z,19.24
2017-03-12T06:59:40.799Z,19.24
2017-03-12T07:00:34.648Z,19.23
2017-03-12T07:01:37.506Z,19.24
2017-03-12T07:02:44.313Z,19.24
2017-03-12T07:03:45.165Z,19.23
2017-03-12T07:04:37.137Z,19.24
2017-03-12T07:05:47.849Z,19.23
2017-03-12T07:06:57.796Z,19.23
2017-03-12T07:07:40.821Z,19.24
2017-03-12T07:08:50.729Z,19.23
2017-03-12T07:09:35.585Z,19.23
2017-03-12T07:10:33.815Z,19.22
2017-03-12T07:11:34.888Z,19.22
2017-03-12T07:12:35.251Z,19.22
2017-03-12T07:13:44.956Z,19.23
2017-03-12T07:14:41.911Z,19.23
2017-03-12T07:15:34.514Z,19.26
2017-03-12T07:16:33.221Z,19.77
2017-03-12T07:17:44.973Z,19.83
2017-03-12T07:18:34.942Z,19.86
2017-03-12T07:19:44.831Z,19.87
2017-03-12T07:20:39.028Z,19.35
2017-03-12T07:21:39.438Z,19.29
2017-03-12T07:22:43.349Z,19.27
2017-03-12T07:23:34.819Z,19.25
2017-03-12T07:24:35.070Z,19.24
2017-03-12T07:25:39.925Z,19.24
2017-03-12T07:26:42.958Z,19.23
2017-03-12T07:27:34.794Z,19.23
2017-03-12T07:28:43.395Z,19.23
2017-03-12T07:29:39.831Z,19.23
2017-03-12T07:30:34.295Z,19.23
2017-03-12T07:31:44.944Z,19.22
2017-03-12T07:32:35.653Z,19.23
2017-03-12T07:33:39.479Z,19.23
2017-03-12T07:34:34.909Z,19.23
2017-03-12T07:35:34.859Z,19.23
2017-03-12T07:36:45.014Z,19.23
2017-03-12T07:37:41.217Z,19.78
2017-03-12T07:38:33.779Z,19.54
2017-03-12T07:39:44.133Z,19.30
2017-03-12T07:40:39.335Z,19.27
2017-03-12T07:41:34.670Z,19.25
2017-03-12T07:42:44.001Z,19.24
2017-03-12T07:43:34.998Z,19.77
2017-03-12T07:44:39.836Z,19.81
2017-03-12T07:45:44.990Z,19.30
2017-03-12T07:46:52.965Z,19.25
2017-03-12T07:47:39.297Z,19.24
2017-03-12T07:48:38.456Z,19.30
2017-03-12T07:49:38.284Z,19.75
2017-03-12T07:50:38.636Z,19.81
2017-03-12T07:51:43.255Z,19.84
2017-03-12T07:52:42.140Z,19.87
2017-03-12T07:53:40.147Z,19.87
2017-03-12T07:54:39.283Z,19.87
2017-03-12T07:55:39.844Z,19.87
2017-03-12T07:56:39.395Z,19.87
2017-03-12T07:57:34.770Z,19.87
2017-03-12T07:58:26.048Z,19.56
2017-03-12T07:59:35.012Z,19.88
2017-03-12T08:00:37.836Z,19.51
2017-03-12T08:01:33.872Z,19.33
2017-03-12T08:02:28.949Z,19.33
2017-03-12T08:03:37.143Z,19.25
2017-03-12T08:04:34.975Z,19.22
2017-03-12T08:05:28.783Z,19.22
2017-03-12T08:06:44.849Z,19.22
2017-03-12T08:07:39.857Z,19.20
2017-03-12T08:08:39.835Z,19.21
2017-03-12T08:09:40.132Z,19.20
2017-03-12T08:10:43.425Z,19.19
2017-03-12T08:11:38.682Z,19.19
2017-03-12T08:12:37.291Z,19.19
2017-03-12T08:13:34.564Z,19.18
2017-03-12T08:14:43.478Z,19.18
2017-03-12T08:15:38.943Z,19.19
2017-03-12T08:16:43.776Z,19.19
2017-03-12T08:17:45.079Z,19.18
2017-03-12T08:18:35.876Z,19.18
2017-03-12T08:19:39.393Z,19.18
2017-03-12T08:20:30.033Z,19.18
2017-03-12T08:21:35.143Z,19.18
2017-03-12T08:22:43.625Z,19.18
2017-03-12T08:23:39.593Z,19.17
2017-03-12T08:24:37.240Z,19.18
2017-03-12T08:25:37.883Z,19.18
2017-03-12T08:26:33.927Z,19.18
2017-03-12T08:27:33.219Z,19.19
2017-03-12T08:28:39.878Z,19.18
2017-03-12T08:29:34.768Z,19.18
2017-03-12T08:30:38.728Z,19.18
2017-03-12T08:31:39.749Z,19.72
2017-03-12T08:32:35.245Z,19.78
2017-03-12T08:33:46.494Z,19.80
2017-03-12T08:34:33.378Z,19.82
2017-03-12T08:35:33.674Z,19.82
2017-03-12T08:36:37.206Z,19.29
2017-03-12T08:37:41.856Z,19.24
2017-03-12T08:38:39.139Z,19.21
2017-03-12T08:39:45.410Z,19.20
2017-03-12T08:40:34.611Z,19.19
2017-03-12T08:41:39.524Z,19.22
2017-03-12T08:42:42.879Z,19.19
2017-03-12T08:43:28.583Z,19.19
2017-03-12T08:44:38.414Z,19.22
2017-03-12T08:45:27.376Z,19.18
2017-03-12T08:46:32.878Z,19.18
2017-03-12T08:47:32.973Z,19.19
2017-03-12T08:48:36.413Z,19.18
2017-03-12T08:49:39.656Z,19.18
2017-03-12T08:50:39.025Z,19.18
2017-03-12T08:51:39.389Z,19.17
2017-03-12T08:53:27.730Z,19.18
2017-03-12T08:54:39.364Z,19.18
2017-03-12T08:55:37.611Z,19.18
2017-03-12T08:56:33.244Z,19.18
2017-03-12T08:57:38.620Z,19.18
2017-03-12T08:58:47.249Z,19.18
2017-03-12T08:59:39.409Z,19.18
2017-03-12T09:00:33.914Z,19.19
2017-03-12T09:01:38.691Z,19.18
2017-03-12T09:02:34.196Z,19.18
2017-03-12T09:03:38.830Z,19.17
2017-03-12T09:04:44.386Z,19.18
2017-03-12T09:05:28.657Z,19.18
2017-03-12T09:06:34.753Z,19.18
2017-03-12T09:07:36.796Z,19.23
2017-03-12T09:08:27.207Z,19.18
2017-03-12T09:09:24.437Z,19.17
2017-03-12T09:10:34.811Z,19.17
2017-03-12T09:11:37.775Z,19.17
2017-03-12T09:12:33.377Z,19.17
2017-03-12T09:13:37.547Z,19.17
2017-03-12T09:14:28.394Z,19.17
2017-03-12T09:15:33.283Z,19.17
2017-03-12T09:16:44.009Z,19.17
2017-03-12T09:17:21.722Z,19.18
2017-03-12T09:18:26.735Z,19.17
2017-03-12T09:19:26.788Z,19.18
2017-03-12T09:20:39.253Z,19.17
2017-03-12T09:21:25.571Z,19.17
2017-03-12T09:22:27.863Z,19.21
2017-03-12T09:23:27.899Z,19.18
2017-03-12T09:24:38.210Z,19.19
2017-03-12T09:25:40.107Z,19.24
2017-03-12T09:27:39.872Z,19.18
2017-03-12T09:28:27.303Z,19.17
2017-03-12T09:29:39.207Z,19.17
2017-03-12T09:30:26.833Z,19.23
2017-03-12T09:31:31.052Z,19.17
2017-03-12T09:32:26.931Z,19.17
2017-03-12T09:33:25.982Z,19.18
2017-03-12T09:34:28.055Z,19.21
2017-03-12T09:35:41.322Z,19.17
2017-03-12T09:36:38.170Z,19.17
2017-03-12T09:37:44.604Z,19.18
2017-03-12T09:38:39.648Z,19.18
2017-03-12T09:39:41.109Z,19.19
2017-03-12T09:40:40.788Z,19.20
2017-03-12T09:41:33.749Z,19.20
2017-03-12T09:42:40.262Z,19.20
2017-03-12T09:43:38.268Z,19.20
2017-03-12T09:44:33.169Z,19.19
2017-03-12T09:45:27.292Z,19.24
2017-03-12T09:46:39.442Z,19.20
2017-03-12T09:47:31.793Z,19.20
2017-03-12T09:48:38.026Z,19.19
2017-03-12T09:49:31.846Z,19.20
2017-03-12T09:50:34.485Z,19.20
2017-03-12T09:51:34.179Z,19.20
2017-03-12T09:52:43.402Z,19.20
2017-03-12T09:53:44.499Z,19.19
2017-03-12T09:54:37.387Z,19.19
2017-03-12T09:55:44.168Z,19.20
2017-03-12T09:56:39.247Z,19.19
2017-03-12T09:57:39.325Z,19.19
2017-03-12T09:58:37.563Z,19.24
2017-03-12T09:59:37.754Z,19.19
2017-03-12T10:00:35.722Z,19.19
2017-03-12T10:01:39.614Z,19.20
2017-03-12T10:02:34.978Z,19.19
2017-03-12T10:03:34.844Z,19.19
2017-03-12T10:04:42.116Z,19.19
2017-03-12T10:05:34.729Z,19.19
2017-03-12T10:06:30.964Z,19.18
2017-03-12T10:07:37.316Z,19.18
2017-03-12T10:08:33.152Z,19.22
2017-03-12T10:09:36.842Z,19.19
2017-03-12T10:10:35.249Z,19.19
2017-03-12T10:11:38.075Z,19.19
2017-03-12T10:12:35.037Z,19.18
2017-03-12T10:13:34.806Z,19.19
2017-03-12T10:14:34.143Z,19.20
2017-03-12T10:15:34.557Z,19.19
2017-03-12T10:16:27.488Z,19.19
2017-03-12T10:17:38.690Z,19.19
2017-03-12T10:18:50.814Z,19.19
2017-03-12T10:19:36.795Z,19.19
2017-03-12T10:20:52.386Z,19.73
2017-03-12T10:21:31.493Z,19.41
2017-03-12T10:22:49.874Z,19.26
2017-03-12T10:23:39.075Z,19.22
2017-03-12T10:24:39.812Z,19.21
2017-03-12T10:25:34.499Z,19.19
2017-03-12T10:26:29.438Z,19.23
2017-03-12T10:27:47.403Z,19.19
2017-03-12T10:28:33.833Z,19.23
2017-03-12T10:29:36.841Z,19.19
2017-03-12T10:30:37.297Z,19.19
2017-03-12T10:31:38.082Z,19.19
2017-03-12T10:32:39.330Z,19.20
2017-03-12T10:33:34.192Z,19.19
2017-03-12T10:34:35.121Z,19.19
2017-03-12T10:35:39.921Z,19.19
2017-03-12T10:36:34.231Z,19.24
2017-03-12T10:37:34.122Z,19.19
2017-03-12T10:38:34.433Z,19.24
2017-03-12T10:39:37.412Z,19.20
2017-03-12T10:40:38.018Z,19.20
2017-03-12T10:41:38.670Z,19.24
2017-03-12T10:42:33.573Z,19.19
2017-03-12T10:43:49.054Z,19.19
2017-03-12T10:44:38.159Z,19.26
2017-03-12T10:45:35.565Z,19.20
2017-03-12T10:46:39.777Z,19.19
2017-03-12T10:47:35.003Z,19.19
2017-03-12T10:48:35.001Z,19.19
2017-03-12T10:49:33.534Z,19.18
2017-03-12T10:50:39.076Z,19.20
2017-03-12T10:51:33.515Z,19.20
2017-03-12T10:52:35.132Z,19.70
2017-03-12T10:53:43.068Z,19.77
2017-03-12T10:54:34.946Z,19.80
2017-03-12T10:55:36.041Z,19.29
2017-03-12T10:56:39.682Z,19.24
2017-03-12T10:57:39.228Z,19.21
2017-03-12T10:58:39.333Z,19.21
2017-03-12T10:59:43.810Z,19.20
2017-03-12T11:00:34.600Z,19.18
2017-03-12T11:01:39.750Z,19.18
2017-03-12T11:02:39.948Z,19.17
2017-03-12T11:03:37.331Z,19.17
2017-03-12T11:04:33.633Z,19.18
2017-03-12T11:05:33.744Z,19.17
2017-03-12T11:06:39.734Z,19.17
2017-03-12T11:07:47.196Z,19.18
2017-03-12T11:08:36.427Z,19.17
2017-03-12T11:09:39.818Z,19.22
2017-03-12T11:10:44.516Z,19.18
2017-03-12T11:11:39.112Z,19.19
2017-03-12T11:12:39.480Z,19.18
2017-03-12T11:13:42.982Z,19.17
2017-03-12T11:14:47.965Z,19.72
2017-03-12T11:15:39.195Z,19.76
2017-03-12T11:16:40.066Z,19.26
2017-03-12T11:17:33.726Z,19.23
2017-03-12T11:18:34.478Z,19.20
2017-03-12T11:19:43.864Z,19.20
2017-03-12T11:20:44.806Z,19.19
2017-03-12T11:21:39.597Z,19.19
2017-03-12T11:22:39.912Z,19.18
2017-03-12T11:23:34.822Z,19.72
2017-03-12T11:24:34.661Z,19.76
2017-03-12T11:25:45.370Z,19.80
2017-03-12T11:26:32.826Z,19.82
2017-03-12T11:27:44.768Z,19.82
2017-03-12T11:28:39.327Z,19.29
2017-03-12T11:29:40.625Z,19.25
2017-03-12T11:30:34.027Z,19.24
2017-03-12T11:31:38.872Z,19.22
2017-03-12T11:32:36.912Z,19.21
2017-03-12T11:33:27.868Z,19.20
2017-03-12T11:34:39.131Z,19.20
2017-03-12T11:35:41.005Z,19.20
2017-03-12T11:36:38.939Z,19.23
2017-03-12T11:37:36.809Z,19.21
2017-03-12T11:38:32.275Z,19.20
2017-03-12T11:39:33.783Z,19.21
2017-03-12T11:40:39.743Z,19.20
2017-03-12T11:41:29.857Z,19.22
2017-03-12T11:42:48.400Z,19.22
2017-03-12T11:43:37.973Z,19.26
2017-03-12T11:44:39.749Z,19.22
2017-03-12T11:45:39.904Z,19.22
2017-03-12T11:46:28.925Z,19.24
2017-03-12T11:47:43.524Z,19.27
2017-03-12T11:48:37.740Z,19.25
2017-03-12T11:49:39.346Z,19.26
2017-03-12T11:50:33.311Z,19.27
2017-03-12T11:51:37.258Z,19.28
2017-03-12T11:52:38.099Z,19.28
2017-03-12T11:53:33.867Z,19.30
2017-03-12T11:54:34.681Z,19.29
2017-03-12T11:55:43.401Z,19.30
2017-03-12T11:56:34.146Z,19.31
2017-03-12T11:57:38.669Z,19.30
2017-03-12T11:58:38.476Z,19.30
2017-03-12T11:59:39.398Z,19.30
2017-03-12T12:00:36.801Z,19.31
2017-03-12T12:01:37.748Z,19.39
2017-03-12T12:02:38.530Z,19.37
2017-03-12T12:03:43.623Z,19.31
2017-03-12T12:04:38.659Z,19.31
2017-03-12T12:05:24.731Z,19.32
2017-03-12T12:06:19.102Z,19.32
2017-03-12T12:07:17.607Z,19.33
2017-03-12T12:08:17.670Z,19.33
2017-03-12T12:09:18.372Z,19.33
2017-03-12T12:10:19.002Z,19.33
2017-03-12T12:11:19.045Z,19.34
2017-03-12T12:12:21.304Z,19.36
2017-03-12T12:13:22.023Z,19.34
2017-03-12T12:14:18.155Z,19.33
2017-03-12T12:15:18.190Z,19.28
2017-03-12T12:16:26.935Z,19.25
2017-03-12T12:17:21.664Z,19.21
2017-03-12T12:18:26.737Z,19.17
2017-03-12T12:20:22.259Z,19.09
2017-03-12T12:21:18.791Z,19.04
2017-03-12T12:22:26.077Z,19.00
2017-03-12T12:23:25.260Z,18.97
2017-03-12T12:24:24.128Z,18.94
2017-03-12T12:25:39.153Z,18.92
2017-03-12T12:26:35.815Z,18.94
2017-03-12T12:27:35.778Z,18.91
2017-03-12T12:28:38.506Z,18.91
2017-03-12T12:29:30.924Z,18.90
2017-03-12T12:30:27.520Z,18.89
2017-03-12T12:31:27.625Z,18.92
2017-03-12T12:32:18.662Z,18.94
2017-03-12T12:33:22.493Z,18.93
2017-03-12T12:34:24.639Z,18.93
2017-03-12T12:35:38.766Z,18.95
2017-03-12T12:36:38.473Z,18.91
2017-03-12T12:37:31.249Z,18.90
2017-03-12T12:38:30.570Z,18.86
2017-03-12T12:39:26.711Z,18.87
2017-03-12T12:40:33.173Z,18.84
2017-03-12T12:41:49.277Z,18.83
2017-03-12T12:42:33.615Z,18.81
2017-03-12T12:43:28.118Z,18.80
2017-03-12T12:44:37.501Z,18.77
2017-03-12T12:45:26.011Z,18.77
2017-03-12T12:46:27.165Z,18.78
2017-03-12T12:47:34.900Z,18.78
2017-03-12T12:48:37.126Z,18.78
2017-03-12T12:49:36.142Z,18.78
2017-03-12T12:50:33.052Z,18.80
2017-03-12T12:51:23.195Z,18.81
2017-03-12T12:52:18.833Z,18.81
2017-03-12T12:53:43.439Z,18.83
2017-03-12T12:54:26.987Z,19.36
2017-03-12T12:55:36.533Z,19.45
2017-03-12T12:56:22.421Z,19.49
2017-03-12T12:57:16.814Z,19.49
2017-03-12T12:58:17.441Z,19.52
2017-03-12T12:59:19.003Z,19.53
2017-03-12T13:00:19.762Z,19.53
2017-03-12T13:01:23.258Z,19.01
2017-03-12T13:02:30.109Z,18.94
2017-03-12T13:03:23.148Z,18.93
2017-03-12T13:04:21.198Z,18.92